Terminal Aerodrome Forecast
Issued by NWS

Home | Current Version | Previous Version | Text Only | Print | Product List | Glossary On
Versions: 1 2 3 4 5 6 7 8 9 10 11 12 13 14 15 16 17 18 19 20 21 22 23 24
000
FTUS45 KBOI 291120
TAFMYL
TAF
KMYL 291120Z 2912/3012 VRB03KT P6SM BKN200
     FM292100 31007KT P6SM SCT100 BKN200
     FM300400 VRB04KT P6SM BKN200=

USA.gov is the U.S. government's official web portal to all federal, state and local government web resources and services.